Time;durP1;ratioP1;P1;durP2;ratioP2;P2;SDS_P1;SDS_P2;PMS_P1;PMS_P2;Temp;Humidity;BMP_temperature;BMP_pressure;BME280_temperature;BME280_humidity;BME280_pressure;Samples;Min_cycle;Max_cycle;Signal;HPM_P1;HPM_P2
2021/11/30 00:03:37;;;;;;;21.5;29.5;;;;;;;1.6;75.8;97490;;;;
2021/11/30 00:14:37;;;;;;;21.5;29.5;;;;;;;1.7;75.3;97490;;;;
2021/11/30 00:24:37;;;;;;;21.5;29.5;;;;;;;1.7;75.4;97500;;;;
2021/11/30 00:34:37;;;;;;;18.2;26.8;;;;;;;1.7;76;97520;;;;
2021/11/30 00:45:41;;;;;;;18.2;26.8;;;;;;;1.5;78.7;97540;;;;
2021/11/30 00:56:37;;;;;;;20;27.4;;;;;;;1.4;80.5;97570;;;;
2021/11/30 01:06:37;;;;;;;20;27.4;;;;;;;1.2;81.3;97580;;;;
2021/11/30 01:16:37;;;;;;;20;27.4;;;;;;;1.2;81.3;97590;;;;
2021/11/30 01:27:37;;;;;;;21;27.5;;;;;;;1.1;81.8;97600;;;;
2021/11/30 01:37:37;;;;;;;21;27.5;;;;;;;1.2;82;97600;;;;
2021/11/30 01:47:53;;;;;;;21;27.5;;;;;;;1.2;82.2;97610;;;;
2021/11/30 01:58:37;;;;;;;18.5;24.8;;;;;;;1.2;82.4;97610;;;;
2021/11/30 02:09:37;;;;;;;18.5;24.8;;;;;;;1.3;81.9;97620;;;;
2021/11/30 02:20:38;;;;;;;18.5;24.8;;;;;;;1.3;81.2;97630;;;;
2021/11/30 02:30:37;;;;;;;18.3;25.2;;;;;;;1.4;80.7;97640;;;;
2021/11/30 02:40:37;;;;;;;18.3;25.2;;;;;;;1.4;80.2;97650;;;;
2021/11/30 02:50:41;;;;;;;18.3;25.2;;;;;;;1.4;79.9;97650;;;;
2021/11/30 03:00:37;;;;;;;20;25.5;;;;;;;1.4;80.1;97660;;;;
2021/11/30 03:11:37;;;;;;;20;25.5;;;;;;;1.4;81.5;97650;;;;
2021/11/30 03:21:37;;;;;;;20;25.5;;;;;;;1.4;80.9;97660;;;;
2021/11/30 03:43:37;;;;;;;17.2;22.5;;;;;;;1.4;80.5;97660;;;;
2021/11/30 03:54:37;;;;;;;17.2;22.5;;;;;;;1.4;80.2;97660;;;;
2021/11/30 04:04:41;;;;;;;17.3;21.2;;;;;;;1.4;79.7;97660;;;;
2021/11/30 04:15:37;;;;;;;17.3;21.2;;;;;;;1.5;79.4;97660;;;;
2021/11/30 04:25:37;;;;;;;13.5;15.5;;;;;;;1.6;78.8;97670;;;;
2021/11/30 04:35:37;;;;;;;13.5;15.5;;;;;;;1.5;79.1;97670;;;;
2021/11/30 04:45:52;;;;;;;13.5;15.5;;;;;;;1.7;79;97670;;;;
2021/11/30 04:56:37;;;;;;;15.3;17.7;;;;;;;1.6;79;97670;;;;
2021/11/30 05:07:37;;;;;;;15.3;17.7;;;;;;;1.6;79.4;97680;;;;
2021/11/30 05:18:39;;;;;;;15.3;17.7;;;;;;;1.5;79.1;97670;;;;
2021/11/30 05:28:37;;;;;;;15.5;20.5;;;;;;;1.6;79;97680;;;;
2021/11/30 05:39:37;;;;;;;15.5;20.5;;;;;;;1.6;78.4;97680;;;;
2021/11/30 05:50:37;;;;;;;15.5;20.5;;;;;;;1.6;78.8;97680;;;;
2021/11/30 06:01:37;;;;;;;15.8;19.1;;;;;;;1.7;77.9;97680;;;;
2021/11/30 06:11:37;;;;;;;15.8;19.1;;;;;;;1.7;77.4;97680;;;;
2021/11/30 06:22:37;;;;;;;15.8;19.1;;;;;;;1.6;77.2;97680;;;;
2021/11/30 06:33:37;;;;;;;12.5;14.4;;;;;;;1.6;77.4;97670;;;;
2021/11/30 06:44:37;;;;;;;12.5;14.4;;;;;;;1.5;77.6;97670;;;;
2021/11/30 06:54:42;;;;;;;12.5;14.4;;;;;;;1.6;76.8;97670;;;;
2021/11/30 07:04:40;;;;;;;8.7;13.9;;;;;;;1.7;76;97680;;;;
2021/11/30 07:15:37;;;;;;;8.7;13.9;;;;;;;1.8;75.8;97690;;;;
2021/11/30 07:25:37;;;;;;;8.5;11.5;;;;;;;1.8;75.7;97680;;;;
2021/11/30 07:36:37;;;;;;;8.5;11.5;;;;;;;1.9;75.2;97670;;;;
2021/11/30 07:46:38;;;;;;;8.5;11.5;;;;;;;2;74.8;97660;;;;
2021/11/30 07:57:37;;;;;;;8.5;11.2;;;;;;;1.9;74.9;97650;;;;
2021/11/30 08:07:37;;;;;;;8.5;11.2;;;;;;;2.1;75.7;97650;;;;
2021/11/30 08:17:37;;;;;;;8.5;11.2;;;;;;;2.1;76.3;97630;;;;
2021/11/30 08:28:37;;;;;;;8.5;11.1;;;;;;;2.5;75.8;97610;;;;
2021/11/30 08:39:37;;;;;;;8.5;11.1;;;;;;;3.1;73.9;97600;;;;
2021/11/30 08:50:37;;;;;;;8.5;11.1;;;;;;;3;72.1;97610;;;;
2021/11/30 09:01:37;;;;;;;9.5;14.1;;;;;;;3;71.4;97590;;;;
2021/11/30 09:11:37;;;;;;;9.5;14.1;;;;;;;3.2;70.8;97580;;;;
2021/11/30 09:22:37;;;;;;;9.5;14.1;;;;;;;3.3;69.9;97570;;;;
2021/11/30 09:32:39;;;;;;;7.9;12.9;;;;;;;3.4;69.2;97540;;;;
2021/11/30 09:42:37;;;;;;;7.9;12.9;;;;;;;3.4;67.6;97530;;;;
2021/11/30 09:52:37;;;;;;;7.9;12.9;;;;;;;3.4;68.5;97500;;;;
2021/11/30 10:03:37;;;;;;;5.2;7.5;;;;;;;3.6;67.6;97480;;;;
2021/11/30 10:14:37;;;;;;;5.2;7.5;;;;;;;3.9;64.9;97440;;;;
2021/11/30 10:24:37;;;;;;;5.5;6.8;;;;;;;3.8;65.2;97420;;;;
2021/11/30 10:34:37;;;;;;;5.5;6.8;;;;;;;3.8;63.5;97380;;;;
2021/11/30 10:44:37;;;;;;;5.5;6.8;;;;;;;4.3;64.1;97370;;;;
2021/11/30 10:55:37;;;;;;;5.1;7.4;;;;;;;4.4;59.8;97340;;;;
2021/11/30 11:05:37;;;;;;;5.1;7.4;;;;;;;4.5;61;97320;;;;
2021/11/30 11:15:37;;;;;;;5.1;7.4;;;;;;;4.5;63.6;97280;;;;
2021/11/30 11:26:37;;;;;;;6.9;10.3;;;;;;;4.2;62.4;97270;;;;
2021/11/30 11:36:37;;;;;;;6.9;10.3;;;;;;;4.4;62.9;97240;;;;
2021/11/30 11:47:37;;;;;;;6.9;10.3;;;;;;;4.3;61.9;97200;;;;
2021/11/30 11:58:39;;;;;;;15;19.9;;;;;;;4.3;61.4;97170;;;;
2021/11/30 12:08:37;;;;;;;15;19.9;;;;;;;4.3;62.4;97140;;;;
2021/11/30 12:18:40;;;;;;;15;19.9;;;;;;;3.9;64;97120;;;;
2021/11/30 12:29:37;;;;;;;6;11.6;;;;;;;3.6;66.1;97100;;;;
2021/11/30 12:40:37;;;;;;;6;11.6;;;;;;;3.3;68.4;97050;;;;
2021/11/30 12:50:37;;;;;;;6;11.6;;;;;;;2.8;69;97010;;;;
2021/11/30 13:01:37;;;;;;;7.5;15.2;;;;;;;2.5;69.3;96970;;;;
2021/11/30 13:11:37;;;;;;;7.5;15.2;;;;;;;2.7;68.8;96970;;;;
2021/11/30 13:22:37;;;;;;;7.5;15.2;;;;;;;2.8;68.4;96980;;;;
2021/11/30 13:32:37;;;;;;;6;10.4;;;;;;;2.8;68.6;96940;;;;
2021/11/30 13:43:39;;;;;;;6;10.4;;;;;;;2.6;69.6;96930;;;;
2021/11/30 13:54:38;;;;;;;6;8;;;;;;;2.6;68.9;96910;;;;
2021/11/30 14:04:38;;;;;;;6;8;;;;;;;2.7;69.3;96900;;;;
2021/11/30 14:14:37;;;;;;;6;8;;;;;;;2.7;69.3;96880;;;;
2021/11/30 14:24:37;;;;;;;4.4;6.7;;;;;;;2.8;68.9;96860;;;;
2021/11/30 14:35:37;;;;;;;4.4;6.7;;;;;;;2.5;72.1;96850;;;;
2021/11/30 14:46:37;;;;;;;4.4;6.7;;;;;;;2.3;74.5;96840;;;;
2021/11/30 14:56:42;;;;;;;4.3;7.4;;;;;;;2;77.6;96810;;;;
2021/11/30 15:07:37;;;;;;;4.3;7.4;;;;;;;1.9;77.3;96770;;;;
2021/11/30 15:17:37;;;;;;;4.3;7.4;;;;;;;2.1;76.3;96750;;;;
2021/11/30 15:27:37;;;;;;;13.8;18.9;;;;;;;2.2;75.1;96760;;;;
2021/11/30 15:37:37;;;;;;;13.8;18.9;;;;;;;2.4;75.2;96760;;;;
2021/11/30 15:48:37;;;;;;;13.8;18.9;;;;;;;2.4;75.4;96750;;;;
2021/11/30 15:58:37;;;;;;;17.4;24;;;;;;;2.5;75.1;96740;;;;
2021/11/30 16:08:37;;;;;;;17.4;24;;;;;;;2.6;74.9;96730;;;;
2021/11/30 16:19:37;;;;;;;17.4;24;;;;;;;2.8;74.7;96720;;;;
2021/11/30 16:30:37;;;;;;;6.2;9.3;;;;;;;2.8;73.9;96730;;;;
2021/11/30 16:41:37;;;;;;;6.2;9.3;;;;;;;3.1;72.6;96700;;;;
2021/11/30 16:51:37;;;;;;;6.2;9.3;;;;;;;3.2;71.7;96700;;;;
2021/11/30 17:02:37;;;;;;;4.7;7.7;;;;;;;3.3;71.7;96700;;;;
2021/11/30 17:13:37;;;;;;;4.7;7.7;;;;;;;3.1;71.7;96690;;;;
2021/11/30 17:23:43;;;;;;;5.2;8.4;;;;;;;3;72.8;96680;;;;
2021/11/30 17:34:37;;;;;;;5.2;8.4;;;;;;;3.1;72.8;96680;;;;
2021/11/30 17:44:37;;;;;;;5.2;8.4;;;;;;;3.1;72.7;96690;;;;
2021/11/30 17:55:37;;;;;;;4.6;9.5;;;;;;;3.4;72.2;96700;;;;
2021/11/30 18:05:37;;;;;;;4.6;9.5;;;;;;;3.6;71.6;96700;;;;
2021/11/30 18:16:37;;;;;;;4.6;9.5;;;;;;;3.6;72.8;96700;;;;
2021/11/30 18:27:37;;;;;;;4.5;7.8;;;;;;;3.6;73.2;96690;;;;
2021/11/30 18:37:37;;;;;;;4.5;7.8;;;;;;;3.7;72.3;96690;;;;
2021/11/30 18:47:37;;;;;;;4.5;7.8;;;;;;;3.8;71.7;96700;;;;
2021/11/30 18:57:37;;;;;;;5.1;9.1;;;;;;;4;70;96710;;;;
2021/11/30 19:07:37;;;;;;;5.1;9.1;;;;;;;4;71.5;96730;;;;
2021/11/30 19:17:37;;;;;;;5.1;9.1;;;;;;;4;72;96720;;;;
2021/11/30 19:28:37;;;;;;;5;9.3;;;;;;;4;72.1;96730;;;;
2021/11/30 19:39:37;;;;;;;5;9.3;;;;;;;4;71.3;96750;;;;
2021/11/30 19:50:37;;;;;;;5;9.3;;;;;;;4.1;71.6;96770;;;;
2021/11/30 20:05:18;;;;;;;3.1;5.6;;;;;;;4;71.5;96780;;;;
2021/11/30 20:11:37;;;;;;;3.1;5.6;;;;;;;4;71.9;96780;;;;
2021/11/30 20:21:37;;;;;;;3.1;5.6;;;;;;;4;72.3;96790;;;;
2021/11/30 20:32:37;;;;;;;3.8;5.6;;;;;;;3.9;73.3;96800;;;;
2021/11/30 20:42:38;;;;;;;3.8;5.6;;;;;;;3.8;73.9;96800;;;;
2021/11/30 20:52:39;;;;;;;4.4;9.7;;;;;;;3.8;74.4;96810;;;;
2021/11/30 21:02:38;;;;;;;4.4;9.7;;;;;;;3.8;73.5;96820;;;;
2021/11/30 21:12:38;;;;;;;4.4;9.7;;;;;;;3.9;72.9;96820;;;;
2021/11/30 21:23:39;;;;;;;4.2;7.6;;;;;;;4.2;70.7;96820;;;;
2021/11/30 21:33:38;;;;;;;4.2;7.6;;;;;;;4.3;69.6;96860;;;;
2021/11/30 21:43:37;;;;;;;4.2;7.6;;;;;;;4.4;69.2;96870;;;;
2021/11/30 21:53:37;;;;;;;3.7;8.8;;;;;;;4.5;67.5;96870;;;;
2021/11/30 22:03:37;;;;;;;3.7;8.8;;;;;;;4.5;66.8;96900;;;;
2021/11/30 22:13:37;;;;;;;3.7;8.8;;;;;;;4.5;67.2;96900;;;;
2021/11/30 22:24:37;;;;;;;3.4;7.4;;;;;;;4.5;67.4;96920;;;;
2021/11/30 22:35:39;;;;;;;3.4;7.4;;;;;;;4.4;68.8;96950;;;;
2021/11/30 22:45:37;;;;;;;3.4;7.4;;;;;;;4.3;69.6;96970;;;;
2021/11/30 22:56:37;;;;;;;3.5;6.2;;;;;;;4.2;70.3;96980;;;;
2021/11/30 23:07:37;;;;;;;3.5;6.2;;;;;;;4.3;69.4;97000;;;;
2021/11/30 23:17:37;;;;;;;3.5;6.2;;;;;;;4.3;68.5;97020;;;;
2021/11/30 23:27:44;;;;;;;3.5;6.8;;;;;;;4.4;68.4;97030;;;;
2021/11/30 23:37:38;;;;;;;3.5;6.8;;;;;;;4.1;70.2;97020;;;;
2021/11/30 23:48:37;;;;;;;3.5;6.8;;;;;;;3.9;72.3;97070;;;;
2021/11/30 23:58:37;;;;;;;3.6;6.5;;;;;;;3.7;73.8;97090;;;;
